Latest Weather Observations for South Channel Island

IDV60801

Issued at 9:31 am EST Sunday 19 April 2015 (issued every 30 minutes, with the page automatically refreshed every 10 minutes)

About weather observations | Map of weather stations | Latest weather observations for VIC | Other Formats
Station Details ID: 086344 Name: SOUTH CHANNEL ISLAND Lat: -38.31 Lon: 144.80 Height: 9.0 m
Data from the previous 72 hours. | See also: Recent months for locations in Victoria
Date/Time
EST
Temp
°C
App
Temp
°C
Dew
Point
Rel
Hum
%
Delta-T
°C
Wind Press
QNH
hPa
Press
MSL
hPa
Rain
since 9 am
mm
Dir
 
Spd
km/h
Gust
km/h
Spd
kts
Gust
kts
19/09:30am - - - - - SSW 54 63 29 34 - - -
19/09:00am - - - - - SSW 54 65 29 35 - - -
19/08:55am - - - - - SSW 52 61 28 33 - - -
19/08:30am - - - - - SW 54 69 29 37 - - -
19/08:09am - - - - - SSW 50 69 27 37 - - -
19/08:00am - - - - - SSW 46 52 25 28 - - -
19/07:51am - - - - - SSW 43 54 23 29 - - -
19/07:30am - - - - - SW 50 65 27 35 - - -
19/07:29am - - - - - SSW 50 65 27 35 - - -
19/07:00am - - - - - SSW 50 59 27 32 - - -
19/06:30am - - - - - SSW 50 61 27 33 - - -
19/06:05am - - - - - SW 46 67 25 36 - - -
19/06:00am - - - - - SW 54 63 29 34 - - -
19/05:49am - - - - - SSW 46 65 25 35 - - -
19/05:30am - - - - - SSW 44 57 24 31 - - -
19/05:00am - - - - - SSW 46 59 25 32 - - -
19/04:31am - - - - - SSW 46 67 25 36 - - -
19/04:30am - - - - - SSW 46 57 25 31 - - -
19/04:00am - - - - - SSW 46 59 25 32 - - -
19/03:32am - - - - - SW 41 65 22 35 - - -
19/03:30am - - - - - SW 41 50 22 27 - - -
19/03:00am - - - - - WSW 37 50 20 27 - - -
19/02:30am - - - - - SW 46 54 25 29 - - -
19/02:00am - - - - - SW 39 48 21 26 - - -
19/01:54am - - - - - SW 37 48 20 26 - - -
19/01:30am - - - - - WSW 26 35 14 19 - - -
19/01:25am - - - - - WSW 33 46 18 25 - - -
19/01:05am - - - - - SW 43 63 23 34 - - -
19/01:00am - - - - - SW 43 52 23 28 - - -
19/12:43am - - - - - SW 30 57 16 31 - - -
19/12:30am - - - - - SW 35 44 19 24 - - -
19/12:20am - - - - - SW 43 70 23 38 - - -
19/12:18am - - - - - SW 43 70 23 38 - - -
19/12:16am - - - - - SW 37 61 20 33 - - -
19/12:00am - - - - - WSW 43 54 23 29 - - -
 
Date/Time
EST
Temp
°C
App
Temp
°C
Dew
Point
Rel
Hum
%
Delta-T
°C
Wind Press
QNH
hPa
Press
MSL
hPa
Rain
since 9 am
mm
Dir
 
Spd
km/h
Gust
km/h
Spd
kts
Gust
kts
18/11:48pm - - - - - W 41 59 22 32 - - -
18/11:30pm - - - - - WSW 37 44 20 24 - - -
18/11:00pm - - - - - SW 32 37 17 20 - - -
18/10:30pm - - - - - WNW 32 37 17 20 - - -
18/10:00pm - - - - - WNW 33 46 18 25 - - -
18/09:30pm - - - - - WNW 30 33 16 18 - - -
18/09:00pm - - - - - WSW 33 41 18 22 - - -
18/08:30pm - - - - - WSW 26 32 14 17 - - -
18/08:00pm - - - - - WSW 28 33 15 18 - - -
18/07:30pm - - - - - WSW 52 63 28 34 - - -
18/07:00pm - - - - - SW 59 69 32 37 - - -
18/06:30pm - - - - - SW 56 65 30 35 - - -
18/06:00pm - - - - - SW 54 65 29 35 - - -
18/05:30pm - - - - - SW 57 69 31 37 - - -
18/05:06pm - - - - - SW 59 80 32 43 - - -
18/05:00pm - - - - - WSW 44 70 24 38 - - -
18/04:58pm - - - - - W 41 65 22 35 - - -
18/04:57pm - - - - - W 39 65 21 35 - - -
18/04:30pm - - - - - W 30 35 16 19 - - -
18/04:00pm - - - - - WNW 28 32 15 17 - - -
18/03:30pm - - - - - N 24 28 13 15 - - -
18/03:00pm - - - - - NNW 26 32 14 17 - - -
18/02:30pm - - - - - NNW 28 33 15 18 - - -
18/02:00pm - - - - - NNW 28 32 15 17 - - -
18/01:30pm - - - - - NNW 24 28 13 15 - - -
18/01:00pm - - - - - NW 22 32 12 17 - - -
18/12:30pm - - - - - NW 24 30 13 16 - - -
18/12:00pm - - - - - WNW 28 35 15 19 - - -
18/11:30am - - - - - WNW 28 33 15 18 - - -
18/11:00am - - - - - WNW 33 41 18 22 - - -
18/10:30am - - - - - WNW 32 43 17 23 - - -
18/10:00am - - - - - WNW 32 35 17 19 - - -
18/09:30am - - - - - NW 28 33 15 18 - - -
18/09:00am - - - - - NW 26 30 14 16 - - -
18/08:30am - - - - - NW 19 26 10 14 - - -
18/08:00am - - - - - WNW 24 28 13 15 - - -
18/07:30am - - - - - WNW 32 35 17 19 - - -
18/07:00am - - - - - WNW 28 32 15 17 - - -
18/06:30am - - - - - WNW 26 30 14 16 - - -
18/06:00am - - - - - WNW 28 32 15 17 - - -
18/05:30am - - - - - WNW 26 30 14 16 - - -
18/05:00am - - - - - WNW 28 33 15 18 - - -
18/04:30am - - - - - WNW 26 32 14 17 - - -
18/04:00am - - - - - NW 24 26 13 14 - - -
18/03:30am - - - - - NW 22 28 12 15 - - -
18/03:00am - - - - - WNW 22 28 12 15 - - -
18/02:30am - - - - - WNW 22 30 12 16 - - -
18/02:00am - - - - - WNW 17 20 9 11 - - -
18/01:30am - - - - - W 20 26 11 14 - - -
18/01:00am - - - - - W 19 20 10 11 - - -
18/12:30am - - - - - WNW 17 19 9 10 - - -
18/12:00am - - - - - WNW 17 20 9 11 - - -
 
Date/Time
EST
Temp
°C
App
Temp
°C
Dew
Point
Rel
Hum
%
Delta-T
°C
Wind Press
QNH
hPa
Press
MSL
hPa
Rain
since 9 am
mm
Dir
 
Spd
km/h
Gust
km/h
Spd
kts
Gust
kts
17/11:30pm - - - - - N 11 15 6 8 - - -
17/11:00pm - - - - - N 13 15 7 8 - - -
17/10:30pm - - - - - N 17 20 9 11 - - -
17/10:00pm - - - - - N 17 22 9 12 - - -
17/09:30pm - - - - - N 15 17 8 9 - - -
17/09:00pm - - - - - N 20 26 11 14 - - -
17/08:30pm - - - - - N 22 26 12 14 - - -
17/08:00pm - - - - - NNE 22 26 12 14 - - -
17/07:30pm - - - - - NNE 17 20 9 11 - - -
17/07:00pm - - - - - NNE 15 17 8 9 - - -
17/06:30pm - - - - - N 17 20 9 11 - - -
17/06:00pm - - - - - NNE 17 20 9 11 - - -
17/05:30pm - - - - - NE 19 24 10 13 - - -
17/05:00pm - - - - - N 22 30 12 16 - - -
17/04:30pm - - - - - N 20 24 11 13 - - -
17/04:00pm - - - - - N 20 24 11 13 - - -
17/03:30pm - - - - - N 13 17 7 9 - - -
17/03:00pm - - - - - N 13 17 7 9 - - -
17/02:30pm - - - - - NNW 11 13 6 7 - - -
17/02:00pm - - - - - NNW 13 15 7 8 - - -
17/01:30pm - - - - - NNW 11 13 6 7 - - -
17/01:00pm - - - - - NE 6 9 3 5 - - -
17/12:30pm - - - - - NE 11 15 6 8 - - -
17/12:00pm - - - - - NE 11 15 6 8 - - -
17/11:30am - - - - - ENE 17 20 9 11 - - -
17/11:00am - - - - - NE 19 22 10 12 - - -
17/10:30am - - - - - NE 19 24 10 13 - - -
17/10:00am - - - - - NE 19 24 10 13 - - -
17/09:30am - - - - - NE 20 22 11 12 - - -
17/09:00am - - - - - ENE 17 20 9 11 - - -
17/08:30am - - - - - ENE 17 19 9 10 - - -
17/08:00am - - - - - NE 15 19 8 10 - - -
17/07:30am - - - - - ENE 15 19 8 10 - - -
17/07:00am - - - - - E 13 17 7 9 - - -
17/06:30am - - - - - ESE 13 17 7 9 - - -
17/06:00am - - - - - ESE 11 13 6 7 - - -
17/05:30am - - - - - SE 9 11 5 6 - - -
17/05:00am - - - - - SE 7 9 4 5 - - -
17/04:30am - - - - - SE 7 9 4 5 - - -
17/04:00am - - - - - SE 9 13 5 7 - - -
17/03:30am - - - - - SE 9 11 5 6 - - -
17/03:00am - - - - - ESE 9 11 5 6 - - -
17/02:30am - - - - - ENE 11 15 6 8 - - -
17/02:00am - - - - - ENE 13 15 7 8 - - -
17/01:30am - - - - - ESE 7 11 4 6 - - -
17/01:00am - - - - - SSE 9 13 5 7 - - -
17/12:30am - - - - - SSE 9 13 5 7 - - -
17/12:00am - - - - - S 9 11 5 6 - - -
 
Date/Time
EST
Temp
°C
App
Temp
°C
Dew
Point
Rel
Hum
%
Delta-T
°C
Wind Press
QNH
hPa
Press
MSL
hPa
Rain
since 9 am
mm
Dir
 
Spd
km/h
Gust
km/h
Spd
kts
Gust
kts
16/11:30pm - - - - - SSW 13 15 7 8 - - -
16/11:00pm - - - - - SSW 13 17 7 9 - - -
16/10:30pm - - - - - SSW 17 20 9 11 - - -
16/10:00pm - - - - - SSW 17 20 9 11 - - -
16/09:30pm - - - - - S 17 22 9 12 - - -
16/09:00pm - - - - - SSW 17 20 9 11 - - -
16/08:30pm - - - - - S 13 17 7 9 - - -
16/08:00pm - - - - - SSW 17 20 9 11 - - -
16/07:30pm - - - - - SSW 17 20 9 11 - - -
16/07:00pm - - - - - S 17 20 9 11 - - -
16/06:30pm - - - - - S 19 24 10 13 - - -
16/06:00pm - - - - - S 20 26 11 14 - - -
16/05:30pm - - - - - SSW 24 30 13 16 - - -
16/05:00pm - - - - - S 28 32 15 17 - - -
16/04:30pm - - - - - S 26 33 14 18 - - -
16/04:00pm - - - - - SSW 30 37 16 20 - - -
16/03:30pm - - - - - S 28 32 15 17 - - -
16/03:00pm - - - - - SSW 26 33 14 18 - - -
16/02:30pm - - - - - SSW 26 35 14 19 - - -
16/02:00pm - - - - - SW 28 33 15 18 - - -
16/01:30pm - - - - - SW 28 32 15 17 - - -
16/01:00pm - - - - - SW 28 32 15 17 - - -
16/12:30pm - - - - - SW 26 32 14 17 - - -
16/12:00pm - - - - - SW 28 33 15 18 - - -
16/11:30am - - - - - SSW 32 37 17 20 - - -
16/11:00am - - - - - SW 35 39 19 21 - - -
16/10:30am - - - - - SW 37 43 20 23 - - -
16/10:00am - - - - - SW 37 44 20 24 - - -

Other Formats:

Comma delimited format used in spreadsheet applications
http://www.bom.gov.au/fwo/IDV60801/IDV60801.94853.axf

JavaScript Object Notation format (JSON) in row-major order
http://www.bom.gov.au/fwo/IDV60801/IDV60801.94853.json